LFT03 NZWN-NZWB
Flight info
| Callsign | LFT03 |
|---|---|
| Flight time | 0h 20m |
| Altitude | 6000 |
| Route | AVPOD |
| Aircraft | BE20/L-SBGRY/S |
Departure
| Time | 2026-04-25 06:16 |
|---|---|
| Airport | Wellington International Airport (NZWN) |
Arrival
| Time | 2026-04-25 06:37 |
|---|---|
| Airport | Woodbourne Airport (NZWB) |
| Time | Latitude | Longitude | Altitude | Speed | Heading |
|---|---|---|---|---|---|
| 2026-04-25 05:48 | -41.32695 | 174.80500 | 19 ft | 0 kts | 5° |
| 2026-04-25 06:07 | -41.32694 | 174.80500 | 19 ft | 1 kts | 4° |
| 2026-04-25 06:07 | -41.32690 | 174.80501 | 19 ft | 1 kts | 9° |
| 2026-04-25 06:07 | -41.32666 | 174.80509 | 19 ft | 1 kts | 50° |
| 2026-04-25 06:08 | -41.32675 | 174.80538 | 18 ft | 7 kts | 98° |
| 2026-04-25 06:08 | -41.32675 | 174.80544 | 18 ft | 0 kts | 92° |
| 2026-04-25 06:09 | -41.32677 | 174.80578 | 17 ft | 9 kts | 94° |
| 2026-04-25 06:10 | -41.32678 | 174.80594 | 17 ft | 0 kts | 94° |
| 2026-04-25 06:13 | -41.32681 | 174.80625 | 16 ft | 8 kts | 106° |
| 2026-04-25 06:13 | -41.32701 | 174.80689 | 14 ft | 3 kts | 42° |
| 2026-04-25 06:14 | -41.32694 | 174.80690 | 14 ft | 0 kts | 355° |
| 2026-04-25 06:15 | -41.32617 | 174.80694 | 17 ft | 40 kts | 4° |
| 2026-04-25 06:15 | -41.32125 | 174.80719 | 64 ft | 95 kts | 1° |
| 2026-04-25 06:16 | -41.31383 | 174.80759 | 413 ft | 117 kts | 4° |
| 2026-04-25 06:16 | -41.30485 | 174.80815 | 783 ft | 141 kts | 4° |
| 2026-04-25 06:16 | -41.29453 | 174.80906 | 1165 ft | 157 kts | 3° |
| 2026-04-25 06:16 | -41.28286 | 174.80981 | 1537 ft | 172 kts | 0° |
| 2026-04-25 06:17 | -41.27084 | 174.80916 | 1925 ft | 175 kts | 341° |
| 2026-04-25 06:17 | -41.26020 | 174.80123 | 2313 ft | 179 kts | 317° |
| 2026-04-25 06:17 | -41.25346 | 174.78741 | 2696 ft | 179 kts | 290° |
| 2026-04-25 06:17 | -41.24877 | 174.77229 | 3073 ft | 181 kts | 303° |
| 2026-04-25 06:18 | -41.23998 | 174.75988 | 3475 ft | 185 kts | 314° |
| 2026-04-25 06:18 | -41.23080 | 174.74754 | 3852 ft | 190 kts | 313° |
| 2026-04-25 06:18 | -41.22137 | 174.73511 | 4235 ft | 193 kts | 314° |
| 2026-04-25 06:18 | -41.21181 | 174.72268 | 4614 ft | 197 kts | 314° |
| 2026-04-25 06:19 | -41.20197 | 174.70981 | 4991 ft | 200 kts | 314° |
| 2026-04-25 06:19 | -41.19195 | 174.69672 | 5364 ft | 203 kts | 313° |
| 2026-04-25 06:19 | -41.18300 | 174.68235 | 5732 ft | 202 kts | 291° |
| 2026-04-25 06:19 | -41.18072 | 174.66403 | 5947 ft | 207 kts | 260° |
| 2026-04-25 06:20 | -41.18599 | 174.64604 | 6008 ft | 215 kts | 238° |
| 2026-04-25 06:20 | -41.19380 | 174.62857 | 6019 ft | 225 kts | 237° |
| 2026-04-25 06:20 | -41.20192 | 174.61054 | 6015 ft | 230 kts | 237° |
| 2026-04-25 06:20 | -41.21008 | 174.59203 | 6022 ft | 233 kts | 238° |
| 2026-04-25 06:21 | -41.21825 | 174.57336 | 6018 ft | 234 kts | 238° |
| 2026-04-25 06:21 | -41.22648 | 174.55460 | 6019 ft | 235 kts | 238° |
| 2026-04-25 06:21 | -41.23468 | 174.53592 | 6019 ft | 233 kts | 237° |
| 2026-04-25 06:21 | -41.24286 | 174.51730 | 6012 ft | 233 kts | 237° |
| 2026-04-25 06:22 | -41.25101 | 174.49869 | 6018 ft | 234 kts | 238° |
| 2026-04-25 06:22 | -41.25915 | 174.48010 | 6016 ft | 233 kts | 238° |
| 2026-04-25 06:22 | -41.26735 | 174.46139 | 6018 ft | 233 kts | 238° |
| 2026-04-25 06:22 | -41.27551 | 174.44274 | 6014 ft | 234 kts | 237° |
| 2026-04-25 06:23 | -41.28367 | 174.42409 | 6021 ft | 234 kts | 238° |
| 2026-04-25 06:23 | -41.29183 | 174.40542 | 6021 ft | 233 kts | 237° |
| 2026-04-25 06:23 | -41.29998 | 174.38677 | 6011 ft | 233 kts | 238° |
| 2026-04-25 06:23 | -41.30815 | 174.36807 | 6014 ft | 234 kts | 238° |
| 2026-04-25 06:24 | -41.31632 | 174.34943 | 6013 ft | 232 kts | 236° |
| 2026-04-25 06:24 | -41.32727 | 174.33428 | 6010 ft | 227 kts | 212° |
| 2026-04-25 06:24 | -41.34066 | 174.32298 | 6012 ft | 229 kts | 211° |
| 2026-04-25 06:24 | -41.35413 | 174.31169 | 6007 ft | 229 kts | 211° |
| 2026-04-25 06:25 | -41.36756 | 174.30029 | 6013 ft | 229 kts | 211° |
| 2026-04-25 06:25 | -41.38100 | 174.28888 | 6012 ft | 229 kts | 211° |
| 2026-04-25 06:25 | -41.39445 | 174.27745 | 6008 ft | 231 kts | 211° |
| 2026-04-25 06:25 | -41.40806 | 174.26587 | 6007 ft | 233 kts | 211° |
| 2026-04-25 06:26 | -41.42179 | 174.25420 | 6011 ft | 234 kts | 211° |
| 2026-04-25 06:26 | -41.43552 | 174.24252 | 6010 ft | 234 kts | 211° |
| 2026-04-25 06:26 | -41.44924 | 174.23085 | 6014 ft | 234 kts | 211° |
| 2026-04-25 06:26 | -41.46294 | 174.21919 | 6012 ft | 234 kts | 211° |
| 2026-04-25 06:27 | -41.47664 | 174.20753 | 6013 ft | 234 kts | 211° |
| 2026-04-25 06:27 | -41.48937 | 174.19466 | 6011 ft | 235 kts | 229° |
| 2026-04-25 06:27 | -41.49585 | 174.17471 | 6020 ft | 238 kts | 255° |
| 2026-04-25 06:27 | -41.49882 | 174.15284 | 6023 ft | 240 kts | 259° |
| 2026-04-25 06:28 | -41.50137 | 174.13078 | 6020 ft | 241 kts | 258° |
| 2026-04-25 06:28 | -41.50421 | 174.10873 | 6021 ft | 241 kts | 257° |
| 2026-04-25 06:28 | -41.50719 | 174.08666 | 6020 ft | 242 kts | 257° |
| 2026-04-25 06:28 | -41.51014 | 174.06461 | 6021 ft | 242 kts | 257° |
| 2026-04-25 06:29 | -41.51302 | 174.04254 | 6021 ft | 242 kts | 257° |
| 2026-04-25 06:29 | -41.51591 | 174.02045 | 6021 ft | 242 kts | 258° |
| 2026-04-25 06:29 | -41.51880 | 173.99839 | 6021 ft | 242 kts | 257° |
| 2026-04-25 06:29 | -41.52159 | 173.97703 | 6014 ft | 224 kts | 257° |
| 2026-04-25 06:30 | -41.52420 | 173.95709 | 6007 ft | 213 kts | 257° |
| 2026-04-25 06:30 | -41.52677 | 173.93763 | 6006 ft | 213 kts | 257° |
| 2026-04-25 06:30 | -41.52931 | 173.91822 | 6006 ft | 212 kts | 257° |
| 2026-04-25 06:30 | -41.53191 | 173.89842 | 5716 ft | 224 kts | 258° |
| 2026-04-25 06:31 | -41.53461 | 173.87759 | 5352 ft | 229 kts | 258° |
| 2026-04-25 06:31 | -41.53955 | 173.85823 | 4959 ft | 214 kts | 236° |
| 2026-04-25 06:31 | -41.54785 | 173.84206 | 4505 ft | 209 kts | 233° |
| 2026-04-25 06:31 | -41.55614 | 173.82634 | 4100 ft | 204 kts | 234° |
| 2026-04-25 06:32 | -41.56400 | 173.81120 | 3826 ft | 194 kts | 234° |
| 2026-04-25 06:32 | -41.57146 | 173.79668 | 3561 ft | 186 kts | 234° |
| 2026-04-25 06:32 | -41.57657 | 173.78127 | 3301 ft | 181 kts | 261° |
| 2026-04-25 06:32 | -41.57591 | 173.76486 | 3056 ft | 177 kts | 287° |
| 2026-04-25 06:33 | -41.57016 | 173.75092 | 2829 ft | 165 kts | 311° |
| 2026-04-25 06:33 | -41.56144 | 173.74223 | 2587 ft | 153 kts | 335° |
| 2026-04-25 06:33 | -41.55141 | 173.73884 | 2379 ft | 147 kts | 358° |
| 2026-04-25 06:33 | -41.54150 | 173.74061 | 2173 ft | 142 kts | 19° |
| 2026-04-25 06:34 | -41.53296 | 173.74685 | 1971 ft | 140 kts | 39° |
| 2026-04-25 06:34 | -41.52668 | 173.75652 | 1771 ft | 138 kts | 60° |
| 2026-04-25 06:34 | -41.52337 | 173.76837 | 1577 ft | 136 kts | 80° |
| 2026-04-25 06:34 | -41.52262 | 173.78087 | 1383 ft | 134 kts | 86° |
| 2026-04-25 06:35 | -41.52202 | 173.79244 | 1170 ft | 118 kts | 85° |
| 2026-04-25 06:35 | -41.52168 | 173.79949 | 1041 ft | 113 kts | 85° |
| 2026-04-25 06:35 | -41.52118 | 173.81008 | 896 ft | 116 kts | 84° |
| 2026-04-25 06:35 | -41.52044 | 173.82095 | 754 ft | 119 kts | 84° |
| 2026-04-25 06:36 | -41.51984 | 173.83213 | 586 ft | 122 kts | 85° |
| 2026-04-25 06:36 | -41.51928 | 173.84338 | 419 ft | 122 kts | 85° |
| 2026-04-25 06:36 | -41.51867 | 173.85463 | 237 ft | 120 kts | 85° |
| 2026-04-25 06:36 | -41.51810 | 173.86528 | 127 ft | 108 kts | 84° |
| 2026-04-25 06:37 | -41.51772 | 173.87171 | 133 ft | 28 kts | 83° |
| 2026-04-25 06:37 | -41.51774 | 173.87298 | 134 ft | 7 kts | 219° |
| 2026-04-25 06:37 | -41.51781 | 173.87170 | 133 ft | 21 kts | 268° |
| 2026-04-25 06:37 | -41.51787 | 173.86918 | 127 ft | 27 kts | 266° |
| 2026-04-25 06:38 | -41.51713 | 173.86832 | 129 ft | 20 kts | 356° |
| 2026-04-25 06:38 | -41.51543 | 173.86820 | 130 ft | 24 kts | 354° |
| 2026-04-25 06:38 | -41.51484 | 173.86857 | 131 ft | 0 kts | 88° |